Sky Vita — V2PU8 — position and weather

sailwx.info

Track history (hours):
 
Tides and Currents Weather Stations Pressure Air Temp Water Temp Dewpoint Dewpoint Depression Visibility Wind Speed Wind Dir Waves Ship Positions

Sky Vita

Last reported at 2017-Dec-11 17:00 UTC. Time now 2017-Dec-14 13:20 UTC.
Position N 53°33' E 005°02'.

Length 88 m; draft 5.3 m.

Type: Cargo ship. MMSI: 304768000.

Date/timePositionNaut miles runAvg speedWind from/ knotsBaromVisibWave heightAir tempDewpointWater temp
2017-Dec-11 17:00N 53°33' E 005°02'114 9.4
2017-Dec-11 04:55N 54°00' E 008°09'4 9.1
2017-Dec-11 04:29N 54°00' E 008°16'4 8.8
2017-Dec-11 04:00N 53°60' E 008°23'4 8.0
2017-Dec-11 03:30N 53°59' E 008°30'4 7.1
2017-Dec-11 03:00N 53°58' E 008°36'3 5.9
2017-Dec-11 02:30N 53°56' E 008°40'3 5.6
2017-Dec-11 02:00N 53°54' E 008°42'3 7.0
2017-Dec-11 01:30N 53°51' E 008°46'4 8.3
2017-Dec-11 01:00N 53°51' E 008°53'5 9.5
2017-Dec-11 00:30N 53°52' E 009°01'510.0
2017-Dec-11 00:01N 53°54' E 009°09'0 0.2
2017-Dec-10 23:30N 53°54' E 009°09'3 5.4
2017-Dec-10 23:01N 53°55' E 009°12'3 6.2
2017-Dec-10 22:31N 53°58' E 009°15'4 8.2
2017-Dec-10 22:00N 54°02' E 009°18'6 8.5
2017-Dec-10 21:18N 54°08' E 009°20'2 4.0
2017-Dec-10 20:41N 54°09' E 009°23'2 8.4
2017-Dec-10 20:30N 54°10' E 009°25'4 8.6
2017-Dec-10 20:00N 54°12' E 009°32'4 8.1
2017-Dec-10 19:30N 54°14' E 009°37'4 7.7
2017-Dec-10 19:00N 54°18' E 009°41'4 7.9
2017-Dec-10 18:30N 54°21' E 009°45'34 6.1
2017-Dec-10 12:53N 54°35' E 010°39'5 9.0
2017-Dec-10 12:20N 54°35' E 010°47'3 9.0
2017-Dec-10 12:00N 54°35' E 010°52'4 8.8
2017-Dec-10 11:30N 54°36' E 010°60'4 8.4
2017-Dec-10 11:00N 54°36' E 011°07'4 8.2
2017-Dec-10 10:30N 54°35' E 011°14'4 8.0
2017-Dec-10 10:00N 54°34' E 011°20'4 7.8
2017-Dec-10 09:30N 54°32' E 011°26'4 8.2
2017-Dec-10 09:00N 54°30' E 011°32'5 8.1
2017-Dec-10 08:25N 54°29' E 011°40'3 8.1
2017-Dec-10 08:00N 54°27' E 011°46'4 7.8
2017-Dec-10 07:30N 54°27' E 011°52'4 7.6
2017-Dec-10 07:00N 54°27' E 011°59'4 7.7
2017-Dec-10 06:30N 54°27' E 012°05'219 6.3
2017-Dec-08 19:49N 54°56' E 018°21'2 7.3
2017-Dec-08 19:30N 54°57' E 018°26'4 7.6
2017-Dec-08 19:00N 54°57' E 018°32'4 7.7
2017-Dec-08 18:30N 54°57' E 018°39'4 7.8
2017-Dec-08 18:00N 54°56' E 018°45'4 7.8
2017-Dec-08 17:30N 54°54' E 018°52'4 8.0
2017-Dec-08 17:00N 54°53' E 018°58'4 8.1
2017-Dec-08 16:31N 54°52' E 019°05'7 8.0
2017-Dec-08 15:41N 54°50' E 019°16'2 8.3
2017-Dec-08 15:28N 54°50' E 019°19'  
2017-Dec-02 06:30N 54°39' E 019°45'6 8.1
2017-Dec-02 05:44N 54°43' E 019°37'1 6.2
2017-Dec-02 05:31N 54°44' E 019°35'1 2.2
2017-Dec-02 05:01N 54°44' E 019°37'5 3.4
2017-Dec-02 03:34N 54°42' E 019°45'0 3.4
2017-Dec-02 03:30N 54°42' E 019°44'2 4.7
2017-Dec-02 03:00N 54°43' E 019°41'3 5.7
2017-Dec-02 02:31N 54°44' E 019°37'2 3.1
2017-Dec-02 02:00N 54°44' E 019°39'3 2.8
2017-Dec-02 00:52N 54°42' E 019°44'1 3.5
2017-Dec-02 00:31N 54°42' E 019°42'3 6.0
2017-Dec-02 00:01N 54°44' E 019°37'1 3.0
2017-Dec-01 23:30N 54°45' E 019°38'2 2.6
2017-Dec-01 22:51N 54°44' E 019°41'2 0.8
2017-Dec-01 20:06N 54°44' E 019°37'0 4.9
2017-Dec-01 20:00N 54°44' E 019°36'  
Track history (hours):
 
Tides and Currents Weather Stations Pressure Air Temp Water Temp Dewpoint Dewpoint Depression Visibility Wind Speed Wind Dir Waves Ship Positions

Sky Vita

Last reported at 2017-Dec-11 17:00 UTC. Time now 2017-Dec-14 13:20 UTC.
Position N 53°33' E 005°02'.

Length 88 m; draft 5.3 m.

Type: Cargo ship. MMSI: 304768000.

Date/timePositionNaut miles runAvg speedWind from/ knotsBaromVisibWave heightAir tempDewpointWater temp
2017-Dec-11 17:00N 53°33' E 005°02'114 9.4
2017-Dec-11 04:55N 54°00' E 008°09'4 9.1
2017-Dec-11 04:29N 54°00' E 008°16'4 8.8
2017-Dec-11 04:00N 53°60' E 008°23'4 8.0
2017-Dec-11 03:30N 53°59' E 008°30'4 7.1
2017-Dec-11 03:00N 53°58' E 008°36'3 5.9
2017-Dec-11 02:30N 53°56' E 008°40'3 5.6
2017-Dec-11 02:00N 53°54' E 008°42'3 7.0
2017-Dec-11 01:30N 53°51' E 008°46'4 8.3
2017-Dec-11 01:00N 53°51' E 008°53'5 9.5
2017-Dec-11 00:30N 53°52' E 009°01'510.0
2017-Dec-11 00:01N 53°54' E 009°09'0 0.2
2017-Dec-10 23:30N 53°54' E 009°09'3 5.4
2017-Dec-10 23:01N 53°55' E 009°12'3 6.2
2017-Dec-10 22:31N 53°58' E 009°15'4 8.2
2017-Dec-10 22:00N 54°02' E 009°18'6 8.5
2017-Dec-10 21:18N 54°08' E 009°20'2 4.0
2017-Dec-10 20:41N 54°09' E 009°23'2 8.4
2017-Dec-10 20:30N 54°10' E 009°25'4 8.6
2017-Dec-10 20:00N 54°12' E 009°32'4 8.1
2017-Dec-10 19:30N 54°14' E 009°37'4 7.7
2017-Dec-10 19:00N 54°18' E 009°41'4 7.9
2017-Dec-10 18:30N 54°21' E 009°45'34 6.1
2017-Dec-10 12:53N 54°35' E 010°39'5 9.0
2017-Dec-10 12:20N 54°35' E 010°47'3 9.0
2017-Dec-10 12:00N 54°35' E 010°52'4 8.8
2017-Dec-10 11:30N 54°36' E 010°60'4 8.4
2017-Dec-10 11:00N 54°36' E 011°07'4 8.2
2017-Dec-10 10:30N 54°35' E 011°14'4 8.0
2017-Dec-10 10:00N 54°34' E 011°20'4 7.8
2017-Dec-10 09:30N 54°32' E 011°26'4 8.2
2017-Dec-10 09:00N 54°30' E 011°32'5 8.1
2017-Dec-10 08:25N 54°29' E 011°40'3 8.1
2017-Dec-10 08:00N 54°27' E 011°46'4 7.8
2017-Dec-10 07:30N 54°27' E 011°52'4 7.6
2017-Dec-10 07:00N 54°27' E 011°59'4 7.7
2017-Dec-10 06:30N 54°27' E 012°05'219 6.3
2017-Dec-08 19:49N 54°56' E 018°21'2 7.3
2017-Dec-08 19:30N 54°57' E 018°26'4 7.6
2017-Dec-08 19:00N 54°57' E 018°32'4 7.7
2017-Dec-08 18:30N 54°57' E 018°39'4 7.8
2017-Dec-08 18:00N 54°56' E 018°45'4 7.8
2017-Dec-08 17:30N 54°54' E 018°52'4 8.0
2017-Dec-08 17:00N 54°53' E 018°58'4 8.1
2017-Dec-08 16:31N 54°52' E 019°05'7 8.0
2017-Dec-08 15:41N 54°50' E 019°16'2 8.3
2017-Dec-08 15:28N 54°50' E 019°19'  
2017-Dec-02 06:30N 54°39' E 019°45'6 8.1
2017-Dec-02 05:44N 54°43' E 019°37'1 6.2
2017-Dec-02 05:31N 54°44' E 019°35'1 2.2
2017-Dec-02 05:01N 54°44' E 019°37'5 3.4
2017-Dec-02 03:34N 54°42' E 019°45'0 3.4
2017-Dec-02 03:30N 54°42' E 019°44'2 4.7
2017-Dec-02 03:00N 54°43' E 019°41'3 5.7
2017-Dec-02 02:31N 54°44' E 019°37'2 3.1
2017-Dec-02 02:00N 54°44' E 019°39'3 2.8
2017-Dec-02 00:52N 54°42' E 019°44'1 3.5
2017-Dec-02 00:31N 54°42' E 019°42'3 6.0
2017-Dec-02 00:01N 54°44' E 019°37'1 3.0
2017-Dec-01 23:30N 54°45' E 019°38'2 2.6
2017-Dec-01 22:51N 54°44' E 019°41'2 0.8
2017-Dec-01 20:06N 54°44' E 019°37'0 4.9
2017-Dec-01 20:00N 54°44' E 019°36'  

Dump ship's entire track history